Time;durP1;ratioP1;P1;durP2;ratioP2;P2;SDS_P1;SDS_P2;PMS_P1;PMS_P2;Temp;Humidity;BMP_temperature;BMP_pressure;BME280_temperature;BME280_humidity;BME280_pressure;Samples;Min_cycle;Max_cycle;Signal;HPM_P1;HPM_P2
2023/04/09 00:00:41;;;;;;;60.83;23.60;;;;;;;;;;5027965;28;20261;-64
2023/04/09 00:03:07;;;;;;;53.33;22.33;;;;;;;;;;5027133;28;20226;-63
2023/04/09 00:05:40;;;;;;;50.80;21.50;;;;;;;;;;5027878;28;20211;-65
2023/04/09 00:08:06;;;;;;;52.57;22.73;;;;;;;;;;5026128;28;20192;-64
2023/04/09 00:10:33;;;;;;;56.37;21.60;;;;;;;;;;5027115;28;20195;-64
2023/04/09 00:13:00;;;;;;;49.43;21.90;;;;;;;;;;5026261;28;20195;-64
2023/04/09 00:15:26;;;;;;;51.97;21.27;;;;;;;;;;5014047;28;20190;-64
2023/04/09 00:17:57;;;;;;;45.53;20.43;;;;;;;;;;5028477;28;20304;-64
2023/04/09 00:20:24;;;;;;;47.17;19.80;;;;;;;;;;5023362;28;20224;-64
2023/04/09 00:22:52;;;;;;;43.97;20.47;;;;;;;;;;5026371;28;20659;-64
2023/04/09 00:25:19;;;;;;;45.87;20.47;;;;;;;;;;5027036;28;20210;-64
2023/04/09 00:27:46;;;;;;;51.90;20.93;;;;;;;;;;5027121;28;21020;-64
2023/04/09 00:30:13;;;;;;;45.47;20.30;;;;;;;;;;5026831;28;20241;-64
2023/04/09 00:32:39;;;;;;;45.63;20.70;;;;;;;;;;5030854;28;20200;-63
2023/04/09 00:35:06;;;;;;;44.90;19.97;;;;;;;;;;5007478;28;20197;-64
2023/04/09 00:37:33;;;;;;;47.93;21.93;;;;;;;;;;5022154;28;20730;-64
2023/04/09 00:40:00;;;;;;;47.03;21.73;;;;;;;;;;5024538;28;20227;-64
2023/04/09 00:42:30;;;;;;;48.87;20.67;;;;;;;;;;5027256;28;20202;-63
2023/04/09 00:44:58;;;;;;;48.57;21.03;;;;;;;;;;5030264;28;20201;-64
2023/04/09 00:47:26;;;;;;;47.83;21.07;;;;;;;;;;5027311;28;20223;-64
2023/04/09 00:49:53;;;;;;;45.77;21.23;;;;;;;;;;5028461;28;20666;-64
2023/04/09 00:52:20;;;;;;;45.67;21.03;;;;;;;;;;5024163;28;20199;-64
2023/04/09 00:54:50;;;;;;;44.67;20.77;;;;;;;;;;5006533;28;20208;-66
2023/04/09 00:57:17;;;;;;;43.83;20.97;;;;;;;;;;5011198;28;20187;-64
2023/04/09 00:59:45;;;;;;;41.67;19.20;;;;;;;;;;5026862;28;20204;-64
2023/04/09 01:02:11;;;;;;;43.20;20.40;;;;;;;;;;5027728;28;20191;-64
2023/04/09 01:04:39;;;;;;;47.67;21.07;;;;;;;;;;5031334;28;20199;-64
2023/04/09 01:07:14;;;;;;;46.53;20.23;;;;;;;;;;5030166;28;20219;-64
2023/04/09 01:09:42;;;;;;;44.80;19.93;;;;;;;;;;5009635;28;20659;-64
2023/04/09 01:12:22;;;;;;;46.67;19.60;;;;;;;;;;5011970;28;20207;-63
2023/04/09 01:14:49;;;;;;;45.93;19.60;;;;;;;;;;5030330;28;20196;-64
2023/04/09 01:17:18;;;;;;;48.47;20.63;;;;;;;;;;5012740;28;20956;-64
2023/04/09 01:19:45;;;;;;;45.07;20.33;;;;;;;;;;4996673;28;20196;-64
2023/04/09 01:22:50;;;;;;;45.90;20.60;;;;;;;;;;5011619;28;20910;-64
2023/04/09 01:25:29;;;;;;;42.03;19.80;;;;;;;;;;4930627;29;21029;-64
2023/04/09 01:28:09;;;;;;;42.00;19.10;;;;;;;;;;4917508;28;20209;-66
2023/04/09 01:30:36;;;;;;;43.03;19.77;;;;;;;;;;4989330;28;20198;-64
2023/04/09 01:33:03;;;;;;;47.00;19.30;;;;;;;;;;5010951;28;20195;-64
2023/04/09 01:35:29;;;;;;;48.30;20.47;;;;;;;;;;5013158;28;20188;-64
2023/04/09 01:37:56;;;;;;;44.03;19.60;;;;;;;;;;5012570;28;20702;-64
2023/04/09 01:40:23;;;;;;;44.23;18.97;;;;;;;;;;5012973;28;20235;-64
2023/04/09 02:18:45;;;;;;;37.73;16.00;;;;;;;;;;5029737;28;20170;-64
2023/04/09 02:21:12;;;;;;;33.00;15.30;;;;;;;;;;5008393;28;20235;-64
2023/04/09 02:23:39;;;;;;;37.60;16.40;;;;;;;;;;5010134;28;20188;-63
2023/04/09 02:26:06;;;;;;;37.67;15.80;;;;;;;;;;4992400;28;20310;-63
2023/04/09 02:28:33;;;;;;;29.10;14.53;;;;;;;;;;4992133;28;20366;-64
2023/04/09 02:31:00;;;;;;;35.67;15.30;;;;;;;;;;5009987;28;20304;-63
2023/04/09 02:33:28;;;;;;;39.73;15.43;;;;;;;;;;5009943;28;20188;-64
2023/04/09 02:35:56;;;;;;;33.53;13.93;;;;;;;;;;5029393;28;20218;-63
2023/04/09 02:38:23;;;;;;;32.60;15.67;;;;;;;;;;5029198;28;20192;-63
2023/04/09 02:40:49;;;;;;;34.77;14.40;;;;;;;;;;5021373;28;20188;-64
2023/04/09 02:43:16;;;;;;;33.63;15.00;;;;;;;;;;5009853;28;20264;-64
2023/04/09 02:45:43;;;;;;;34.77;14.93;;;;;;;;;;5009433;28;20314;-64
2023/04/09 02:48:10;;;;;;;33.13;15.00;;;;;;;;;;5016918;28;20713;-63
2023/04/09 02:50:36;;;;;;;31.80;14.57;;;;;;;;;;5012061;28;20287;-64
2023/04/09 02:53:03;;;;;;;39.17;16.00;;;;;;;;;;5011441;28;20226;-64
2023/04/09 02:55:30;;;;;;;33.07;15.30;;;;;;;;;;5011574;28;20218;-64
2023/04/09 02:57:57;;;;;;;35.83;14.57;;;;;;;;;;5007735;28;20926;-64
2023/04/09 03:00:23;;;;;;;32.80;14.30;;;;;;;;;;4993522;28;20199;-64
2023/04/09 03:02:50;;;;;;;34.10;13.83;;;;;;;;;;5011818;28;20278;-64
2023/04/09 03:05:19;;;;;;;32.30;14.73;;;;;;;;;;5029189;28;20535;-64
2023/04/09 03:07:46;;;;;;;34.60;15.03;;;;;;;;;;5011414;28;20226;-64
2023/04/09 03:10:13;;;;;;;33.53;14.30;;;;;;;;;;5028950;28;20191;-63
2023/04/09 03:12:39;;;;;;;33.40;15.07;;;;;;;;;;5028819;28;20214;-64
2023/04/09 03:15:06;;;;;;;35.50;14.53;;;;;;;;;;5016203;28;20915;-64
2023/04/09 03:17:33;;;;;;;32.23;13.60;;;;;;;;;;5008145;28;20192;-64
2023/04/09 03:19:59;;;;;;;34.73;14.47;;;;;;;;;;5008841;28;20180;-63
2023/04/09 03:22:36;;;;;;;31.97;13.60;;;;;;;;;;5007621;28;20192;-63
2023/04/09 03:25:18;;;;;;;33.53;14.73;;;;;;;;;;5009131;28;20202;-64
2023/04/09 03:27:45;;;;;;;34.77;15.13;;;;;;;;;;5009688;28;20964;-64
2023/04/09 03:30:19;;;;;;;40.00;16.33;;;;;;;;;;4995117;28;20441;-66
2023/04/09 03:32:46;;;;;;;40.07;15.73;;;;;;;;;;5009179;28;20203;-63
2023/04/09 03:35:13;;;;;;;37.60;15.13;;;;;;;;;;4991269;28;20198;-63
2023/04/09 03:37:42;;;;;;;39.10;16.60;;;;;;;;;;4990871;28;20664;-65
2023/04/09 03:40:15;;;;;;;37.53;15.90;;;;;;;;;;4999077;28;20470;-63
2023/04/09 03:42:43;;;;;;;40.63;16.23;;;;;;;;;;5008750;28;20486;-63
2023/04/09 03:45:13;;;;;;;38.03;15.67;;;;;;;;;;5006842;28;20200;-63
2023/04/09 03:47:43;;;;;;;45.47;16.87;;;;;;;;;;5008984;28;20235;-64
2023/04/09 03:50:10;;;;;;;41.20;15.90;;;;;;;;;;4990805;28;20208;-64
2023/04/09 03:52:45;;;;;;;39.03;16.33;;;;;;;;;;5007482;28;20449;-63
2023/04/09 03:55:12;;;;;;;41.97;16.13;;;;;;;;;;5015464;28;20449;-63
2023/04/09 03:57:39;;;;;;;53.23;17.73;;;;;;;;;;5028062;28;20433;-63
2023/04/09 04:00:11;;;;;;;55.10;17.90;;;;;;;;;;5010109;28;21316;-63
2023/04/09 04:02:50;;;;;;;53.03;17.27;;;;;;;;;;5028133;28;20426;-65
2023/04/09 04:05:32;;;;;;;55.67;18.17;;;;;;;;;;4990738;28;20489;-64
2023/04/09 04:08:06;;;;;;;58.20;20.73;;;;;;;;;;4991179;28;20270;-64
2023/04/09 04:10:33;;;;;;;62.97;19.90;;;;;;;;;;5010210;28;20666;-63
2023/04/09 04:13:01;;;;;;;60.37;19.63;;;;;;;;;;5013680;28;20195;-64
2023/04/09 04:15:42;;;;;;;58.00;19.47;;;;;;;;;;5009980;28;20197;-64
2023/04/09 04:18:11;;;;;;;56.80;18.93;;;;;;;;;;5010344;28;20199;-64
2023/04/09 04:20:43;;;;;;;55.80;19.37;;;;;;;;;;5012302;28;20295;-65
2023/04/09 04:23:13;;;;;;;56.07;20.23;;;;;;;;;;5009793;28;20196;-66
2023/04/09 04:26:00;;;;;;;56.97;20.40;;;;;;;;;;5027619;28;20199;-66
2023/04/09 04:28:33;;;;;;;56.20;18.97;;;;;;;;;;5013202;28;20482;-67
2023/04/09 04:31:00;;;;;;;55.63;19.77;;;;;;;;;;5010069;28;20202;-66
2023/04/09 04:33:29;;;;;;;54.10;19.73;;;;;;;;;;4999613;28;20664;-66
2023/04/09 04:36:09;;;;;;;55.60;18.73;;;;;;;;;;5004208;28;20188;-66
2023/04/09 04:38:42;;;;;;;48.23;18.20;;;;;;;;;;5012234;28;20658;-67
2023/04/09 04:41:17;;;;;;;45.40;17.07;;;;;;;;;;5016796;28;20203;-67
2023/04/09 04:43:50;;;;;;;42.60;17.50;;;;;;;;;;4997186;28;20234;-68
2023/04/09 04:46:20;;;;;;;36.97;16.63;;;;;;;;;;5016820;28;20211;-68
2023/04/09 04:48:47;;;;;;;37.93;15.87;;;;;;;;;;5030217;28;20205;-69
2023/04/09 04:51:15;;;;;;;29.00;14.70;;;;;;;;;;5014441;28;20204;-68
2023/04/09 04:53:55;;;;;;;27.03;16.00;;;;;;;;;;5019139;28;20222;-66
2023/04/09 04:56:22;;;;;;;29.70;16.30;;;;;;;;;;5020500;28;21396;-65
2023/04/09 04:59:01;;;;;;;32.20;16.53;;;;;;;;;;5020068;28;20450;-66
2023/04/09 05:01:40;;;;;;;30.10;16.27;;;;;;;;;;5027992;28;20202;-67
2023/04/09 05:04:10;;;;;;;31.23;15.50;;;;;;;;;;5020218;28;20342;-65
2023/04/09 05:06:37;;;;;;;30.83;15.27;;;;;;;;;;5010929;28;20294;-65
2023/04/09 05:09:08;;;;;;;29.37;15.37;;;;;;;;;;5007005;28;20203;-66
2023/04/09 05:11:48;;;;;;;27.33;15.67;;;;;;;;;;5014671;28;20670;-67
2023/04/09 05:14:20;;;;;;;25.13;14.67;;;;;;;;;;5015470;28;20199;-67
2023/04/09 05:16:47;;;;;;;23.50;15.03;;;;;;;;;;5011165;28;20268;-67
2023/04/09 05:19:15;;;;;;;25.70;15.13;;;;;;;;;;5030112;28;20211;-66
2023/04/09 05:21:42;;;;;;;26.60;15.23;;;;;;;;;;5012451;28;20203;-66
2023/04/09 05:24:17;;;;;;;25.67;14.93;;;;;;;;;;5010691;28;20234;-65
2023/04/09 05:26:44;;;;;;;24.33;14.70;;;;;;;;;;5020285;28;20261;-65
2023/04/09 05:29:11;;;;;;;25.60;14.83;;;;;;;;;;5030857;28;20192;-65
2023/04/09 05:31:39;;;;;;;23.93;14.90;;;;;;;;;;5028474;28;20219;-67
2023/04/09 05:34:11;;;;;;;24.57;14.67;;;;;;;;;;5014220;28;20206;-68
2023/04/09 05:36:42;;;;;;;24.73;15.00;;;;;;;;;;4999988;28;20302;-64
2023/04/09 05:39:09;;;;;;;21.10;14.17;;;;;;;;;;5009025;28;20595;-64
2023/04/09 05:41:37;;;;;;;25.27;14.60;;;;;;;;;;5011670;28;20282;-64
2023/04/09 05:44:30;;;;;;;26.00;15.60;;;;;;;;;;5009922;28;20192;-65
2023/04/09 05:47:03;;;;;;;26.33;15.23;;;;;;;;;;5010200;28;20250;-67
2023/04/09 05:49:51;;;;;;;21.80;13.83;;;;;;;;;;5023894;28;20206;-65
2023/04/09 05:52:18;;;;;;;22.50;14.47;;;;;;;;;;5029136;28;20211;-66
2023/04/09 05:54:45;;;;;;;21.10;13.23;;;;;;;;;;5014974;28;20227;-66
2023/04/09 05:57:16;;;;;;;20.50;13.33;;;;;;;;;;5018426;28;20646;-65
2023/04/09 05:59:50;;;;;;;21.07;12.07;;;;;;;;;;5008090;28;20199;-68
2023/04/09 06:02:20;;;;;;;17.83;11.17;;;;;;;;;;5009259;28;21384;-65
2023/04/09 06:04:46;;;;;;;18.37;11.63;;;;;;;;;;5032188;28;20997;-67
2023/04/09 06:07:14;;;;;;;18.70;12.00;;;;;;;;;;5013178;28;20314;-65
2023/04/09 06:09:43;;;;;;;16.80;10.97;;;;;;;;;;5007519;28;20354;-65
2023/04/09 06:12:09;;;;;;;15.93;10.67;;;;;;;;;;5028554;28;20214;-65
2023/04/09 06:14:36;;;;;;;20.30;11.43;;;;;;;;;;5033377;28;20769;-65
2023/04/09 06:17:04;;;;;;;14.37;9.13;;;;;;;;;;5030713;28;20202;-65
2023/04/09 06:19:31;;;;;;;13.67;8.67;;;;;;;;;;5028193;28;20195;-64
2023/04/09 06:21:57;;;;;;;12.90;7.77;;;;;;;;;;5031997;28;20205;-63
2023/04/09 06:24:24;;;;;;;13.40;8.23;;;;;;;;;;5012169;28;20261;-65
2023/04/09 06:26:51;;;;;;;13.23;7.47;;;;;;;;;;5029794;28;20216;-63
2023/04/09 06:29:18;;;;;;;13.83;7.20;;;;;;;;;;5027547;28;20219;-63
2023/04/09 06:31:45;;;;;;;13.00;7.90;;;;;;;;;;5013262;28;20234;-64
2023/04/09 06:34:12;;;;;;;13.27;7.60;;;;;;;;;;5031503;28;20188;-63
2023/04/09 06:36:39;;;;;;;13.93;8.10;;;;;;;;;;5019653;28;20211;-63
2023/04/09 06:39:06;;;;;;;12.47;7.40;;;;;;;;;;5030822;28;20250;-63
2023/04/09 06:41:32;;;;;;;13.33;7.30;;;;;;;;;;5032995;28;20290;-62
2023/04/09 06:44:07;;;;;;;12.90;6.90;;;;;;;;;;5009978;28;20556;-63
2023/04/09 06:46:36;;;;;;;11.73;6.57;;;;;;;;;;5036232;28;20708;-63
2023/04/09 06:49:03;;;;;;;11.27;6.10;;;;;;;;;;5033365;28;20733;-63
2023/04/09 06:51:30;;;;;;;9.30;6.03;;;;;;;;;;5030644;28;20666;-64
2023/04/09 06:53:57;;;;;;;9.63;5.70;;;;;;;;;;5014486;28;20195;-62
2023/04/09 06:56:24;;;;;;;9.70;5.70;;;;;;;;;;5031815;28;20284;-62
2023/04/09 06:58:51;;;;;;;8.37;5.60;;;;;;;;;;5030633;28;20188;-56
2023/04/09 07:01:21;;;;;;;10.27;5.53;;;;;;;;;;5031702;28;20223;-56
2023/04/09 07:03:48;;;;;;;11.20;6.10;;;;;;;;;;5032092;28;20195;-63
2023/04/09 07:06:15;;;;;;;10.70;5.57;;;;;;;;;;5032213;28;20199;-62
2023/04/09 07:08:42;;;;;;;11.47;5.40;;;;;;;;;;5030197;28;20723;-62
2023/04/09 07:11:08;;;;;;;8.70;5.43;;;;;;;;;;5031787;28;20770;-62
2023/04/09 07:13:35;;;;;;;7.90;4.93;;;;;;;;;;5031524;28;20195;-61
2023/04/09 07:16:02;;;;;;;8.63;5.00;;;;;;;;;;5031820;28;20278;-62
2023/04/09 07:18:29;;;;;;;10.47;5.50;;;;;;;;;;5031425;28;20190;-62
2023/04/09 07:20:56;;;;;;;11.63;5.20;;;;;;;;;;5031207;28;20646;-63
2023/04/09 07:23:22;;;;;;;9.33;4.80;;;;;;;;;;5014931;28;20662;-62
2023/04/09 07:25:49;;;;;;;7.17;5.20;;;;;;;;;;5037880;28;20196;-61
2023/04/09 07:28:16;;;;;;;11.67;4.87;;;;;;;;;;5017768;28;20215;-61
2023/04/09 07:30:43;;;;;;;8.87;5.30;;;;;;;;;;5029287;28;20195;-62
2023/04/09 07:33:09;;;;;;;11.00;4.80;;;;;;;;;;4996821;28;20194;-63
2023/04/09 07:35:36;;;;;;;11.37;4.73;;;;;;;;;;5033906;28;20192;-62
2023/04/09 07:38:03;;;;;;;9.87;4.60;;;;;;;;;;5030643;28;20191;-64
2023/04/09 07:40:33;;;;;;;7.67;4.13;;;;;;;;;;5031259;28;20235;-62
2023/04/09 07:42:59;;;;;;;9.73;4.60;;;;;;;;;;5019882;28;20207;-63
2023/04/09 07:45:29;;;;;;;8.40;4.53;;;;;;;;;;5031340;28;20551;-63
2023/04/09 07:47:56;;;;;;;5.60;3.80;;;;;;;;;;5031328;28;20215;-63
2023/04/09 07:50:23;;;;;;;7.43;4.23;;;;;;;;;;5031007;28;20191;-63
2023/04/09 07:52:50;;;;;;;8.67;4.13;;;;;;;;;;5012952;28;20188;-63
2023/04/09 07:55:17;;;;;;;7.53;3.87;;;;;;;;;;5031515;28;20199;-63
2023/04/09 07:57:44;;;;;;;7.17;4.50;;;;;;;;;;5028182;28;20187;-63
2023/04/09 08:00:11;;;;;;;7.23;3.90;;;;;;;;;;5026807;28;20191;-63
2023/04/09 08:02:42;;;;;;;11.40;4.03;;;;;;;;;;5028256;28;20257;-63
2023/04/09 08:05:09;;;;;;;7.90;4.30;;;;;;;;;;5027836;28;20519;-63
2023/04/09 08:07:36;;;;;;;6.40;4.07;;;;;;;;;;5027452;28;20219;-62
2023/04/09 08:10:03;;;;;;;7.33;4.07;;;;;;;;;;5027690;28;20283;-63
2023/04/09 08:12:30;;;;;;;6.70;4.17;;;;;;;;;;5026911;28;20191;-64
2023/04/09 08:14:58;;;;;;;10.57;4.07;;;;;;;;;;5030951;28;20179;-64
2023/04/09 08:17:26;;;;;;;7.80;3.70;;;;;;;;;;5027856;28;20191;-63
2023/04/09 08:19:52;;;;;;;5.73;2.77;;;;;;;;;;5030100;28;20202;-63
2023/04/09 08:22:19;;;;;;;7.47;3.40;;;;;;;;;;5026966;28;20652;-63
2023/04/09 08:24:49;;;;;;;6.80;3.03;;;;;;;;;;5030678;28;20635;-63
2023/04/09 08:27:17;;;;;;;5.57;3.47;;;;;;;;;;5009838;28;20211;-56
2023/04/09 08:29:44;;;;;;;6.07;3.57;;;;;;;;;;5012751;28;20418;-63
2023/04/09 08:32:11;;;;;;;5.80;3.30;;;;;;;;;;5019367;28;20195;-63
2023/04/09 08:34:38;;;;;;;6.67;3.40;;;;;;;;;;5011435;28;20589;-63
2023/04/09 08:37:05;;;;;;;6.43;3.00;;;;;;;;;;5029084;28;20202;-63
2023/04/09 08:39:32;;;;;;;7.77;3.47;;;;;;;;;;5010171;28;20223;-63
2023/04/09 08:42:02;;;;;;;4.17;3.03;;;;;;;;;;5028081;28;20639;-65
2023/04/09 08:44:29;;;;;;;8.03;3.20;;;;;;;;;;5009850;28;20191;-63
2023/04/09 08:46:56;;;;;;;6.50;3.70;;;;;;;;;;5022949;28;20192;-63
2023/04/09 08:49:29;;;;;;;7.10;3.27;;;;;;;;;;5019341;28;20207;-62
2023/04/09 08:51:56;;;;;;;7.87;3.10;;;;;;;;;;5027776;28;20195;-64
2023/04/09 08:54:25;;;;;;;6.73;3.40;;;;;;;;;;5027725;28;20191;-63
2023/04/09 08:56:52;;;;;;;7.20;3.47;;;;;;;;;;5028116;28;20729;-63
2023/04/09 08:59:19;;;;;;;9.57;3.63;;;;;;;;;;5009905;28;20211;-63
2023/04/09 09:01:51;;;;;;;6.87;3.23;;;;;;;;;;5027662;28;20203;-63
2023/04/09 09:04:18;;;;;;;8.33;4.00;;;;;;;;;;5025437;28;20195;-63
2023/04/09 09:06:45;;;;;;;5.30;3.13;;;;;;;;;;5027620;28;20195;-63
2023/04/09 09:09:12;;;;;;;6.03;3.50;;;;;;;;;;5026422;28;20226;-63
2023/04/09 09:11:40;;;;;;;6.93;3.60;;;;;;;;;;5027841;28;20187;-63
2023/04/09 09:14:07;;;;;;;7.03;3.37;;;;;;;;;;5026089;28;20237;-63
2023/04/09 09:16:34;;;;;;;7.70;3.63;;;;;;;;;;5027561;28;20215;-58
2023/04/09 09:19:01;;;;;;;8.27;3.30;;;;;;;;;;5025028;28;20256;-64
2023/04/09 09:21:28;;;;;;;6.40;3.53;;;;;;;;;;5035383;28;20195;-64
2023/04/09 09:23:55;;;;;;;6.37;3.80;;;;;;;;;;5030639;28;20191;-64
2023/04/09 09:26:29;;;;;;;5.80;3.30;;;;;;;;;;5030960;28;20183;-64
2023/04/09 09:28:58;;;;;;;7.87;4.03;;;;;;;;;;5030558;28;20307;-64
2023/04/09 09:31:25;;;;;;;7.20;3.53;;;;;;;;;;5030799;28;20189;-64
2023/04/09 09:33:52;;;;;;;6.50;3.60;;;;;;;;;;5029130;28;20196;-64
2023/04/09 09:36:30;;;;;;;5.37;3.63;;;;;;;;;;5010284;28;20555;-63
2023/04/09 09:38:57;;;;;;;7.60;3.43;;;;;;;;;;5011005;28;20235;-62
2023/04/09 09:41:24;;;;;;;7.20;3.83;;;;;;;;;;5029790;28;20184;-64
2023/04/09 09:43:51;;;;;;;6.97;3.40;;;;;;;;;;5012319;28;20223;-64
2023/04/09 09:46:18;;;;;;;6.40;3.57;;;;;;;;;;5030710;28;20546;-63
2023/04/09 09:48:48;;;;;;;8.00;3.57;;;;;;;;;;5029230;28;20219;-67
2023/04/09 09:51:15;;;;;;;6.93;3.73;;;;;;;;;;5029153;28;20199;-64
2023/04/09 09:53:42;;;;;;;7.43;3.90;;;;;;;;;;5008427;28;20187;-64
2023/04/09 09:56:13;;;;;;;5.07;3.60;;;;;;;;;;5030007;28;20199;-64
2023/04/09 09:58:40;;;;;;;6.27;3.63;;;;;;;;;;5030374;28;20192;-64
2023/04/09 10:01:09;;;;;;;7.07;3.60;;;;;;;;;;5012015;28;20554;-64
2023/04/09 10:03:37;;;;;;;7.00;3.80;;;;;;;;;;5029819;28;20198;-64
2023/04/09 10:06:04;;;;;;;9.47;3.63;;;;;;;;;;5012905;28;20187;-63
2023/04/09 10:08:32;;;;;;;6.20;3.60;;;;;;;;;;5029127;28;20222;-64
2023/04/09 10:11:00;;;;;;;5.10;3.40;;;;;;;;;;5011874;28;20196;-64
2023/04/09 10:13:34;;;;;;;5.07;3.50;;;;;;;;;;5032982;28;20219;-64
2023/04/09 10:16:01;;;;;;;7.17;3.60;;;;;;;;;;5030287;28;20191;-64
2023/04/09 10:18:28;;;;;;;6.40;3.67;;;;;;;;;;5029703;28;20386;-64
2023/04/09 10:20:55;;;;;;;8.13;3.73;;;;;;;;;;5009090;28;20197;-64
2023/04/09 10:23:37;;;;;;;6.43;3.50;;;;;;;;;;5010133;28;20230;-64
2023/04/09 10:26:04;;;;;;;7.67;3.60;;;;;;;;;;5012076;28;20783;-65
2023/04/09 10:28:31;;;;;;;6.60;3.50;;;;;;;;;;5029847;28;20269;-64
2023/04/09 10:30:58;;;;;;;5.53;3.30;;;;;;;;;;5029061;28;20187;-64
2023/04/09 10:33:25;;;;;;;5.80;3.00;;;;;;;;;;5029716;28;20429;-63
2023/04/09 10:35:53;;;;;;;4.90;3.23;;;;;;;;;;5029620;28;20199;-64
2023/04/09 10:38:36;;;;;;;4.47;2.70;;;;;;;;;;5032176;28;20684;-64
2023/04/09 10:41:07;;;;;;;7.73;3.50;;;;;;;;;;5029476;28;20195;-64
2023/04/09 10:43:34;;;;;;;5.20;2.87;;;;;;;;;;5023297;28;20207;-63
2023/04/09 10:46:03;;;;;;;5.67;2.80;;;;;;;;;;5028978;28;20234;-64
2023/04/09 10:48:33;;;;;;;6.53;3.17;;;;;;;;;;5029292;28;20211;-63
2023/04/09 10:51:05;;;;;;;3.60;2.43;;;;;;;;;;5029056;28;20245;-63
2023/04/09 10:53:32;;;;;;;5.67;2.70;;;;;;;;;;5028646;28;20595;-58
2023/04/09 10:56:00;;;;;;;6.27;3.13;;;;;;;;;;5029207;28;20203;-60
2023/04/09 10:58:26;;;;;;;5.97;2.50;;;;;;;;;;5026981;28;20198;-68
2023/04/09 11:00:54;;;;;;;5.97;2.47;;;;;;;;;;5010607;28;20257;-63
2023/04/09 11:03:21;;;;;;;6.77;3.00;;;;;;;;;;5032223;28;20501;-63
2023/04/09 11:05:57;;;;;;;4.13;2.67;;;;;;;;;;5029504;28;20203;-62
2023/04/09 11:08:29;;;;;;;4.50;2.33;;;;;;;;;;5028844;28;20690;-64
2023/04/09 11:10:57;;;;;;;4.50;2.73;;;;;;;;;;5028660;28;20290;-64
2023/04/09 11:13:24;;;;;;;4.20;2.57;;;;;;;;;;5029111;28;20197;-61
2023/04/09 11:15:50;;;;;;;5.13;2.70;;;;;;;;;;5020718;28;20196;-62
2023/04/09 11:18:27;;;;;;;5.43;2.90;;;;;;;;;;5029115;28;20199;-62
2023/04/09 11:20:56;;;;;;;4.47;2.43;;;;;;;;;;5028173;28;20195;-62
2023/04/09 11:23:25;;;;;;;4.13;2.40;;;;;;;;;;5031492;28;20187;-59
2023/04/09 11:25:52;;;;;;;5.47;2.60;;;;;;;;;;5010641;28;20887;-60
2023/04/09 11:28:20;;;;;;;3.90;2.40;;;;;;;;;;5028566;28;20567;-61
2023/04/09 11:30:46;;;;;;;5.60;2.30;;;;;;;;;;5026824;28;20195;-61
2023/04/09 11:33:13;;;;;;;4.07;2.07;;;;;;;;;;4995193;28;20208;-64
2023/04/09 11:35:42;;;;;;;5.20;2.20;;;;;;;;;;5009207;28;20203;-64
2023/04/09 11:38:10;;;;;;;3.00;2.30;;;;;;;;;;5020774;28;20582;-66
2023/04/09 11:40:44;;;;;;;6.03;2.50;;;;;;;;;;5027088;28;20231;-60
2023/04/09 11:43:11;;;;;;;5.33;2.20;;;;;;;;;;5042034;28;20185;-62
2023/04/09 11:45:38;;;;;;;5.33;2.43;;;;;;;;;;5045392;28;20270;-61
2023/04/09 11:48:05;;;;;;;5.83;2.40;;;;;;;;;;5030780;28;20267;-64
2023/04/09 11:50:33;;;;;;;3.27;2.07;;;;;;;;;;5010408;28;20198;-63
2023/04/09 11:52:59;;;;;;;4.03;2.07;;;;;;;;;;5027149;28;20269;-62
2023/04/09 11:55:27;;;;;;;3.00;2.10;;;;;;;;;;5028202;28;20187;-63
2023/04/09 11:57:59;;;;;;;3.83;2.20;;;;;;;;;;5027985;28;20203;-62
2023/04/09 12:00:27;;;;;;;5.63;2.83;;;;;;;;;;5030482;28;20221;-63
2023/04/09 12:03:01;;;;;;;4.40;2.10;;;;;;;;;;5010750;28;20554;-61
2023/04/09 12:05:32;;;;;;;5.63;2.50;;;;;;;;;;5026236;28;20569;-63
2023/04/09 12:08:04;;;;;;;5.13;2.13;;;;;;;;;;5028099;28;20175;-61
2023/04/09 12:10:31;;;;;;;7.33;2.40;;;;;;;;;;5008701;28;20195;-63
2023/04/09 12:13:02;;;;;;;6.37;2.60;;;;;;;;;;5028352;28;20195;-63
2023/04/09 12:15:32;;;;;;;4.13;2.40;;;;;;;;;;5027933;28;20287;-63
2023/04/09 12:17:59;;;;;;;4.73;2.57;;;;;;;;;;5006466;28;20200;-64
2023/04/09 12:20:36;;;;;;;7.17;2.50;;;;;;;;;;5008878;28;20870;-80
2023/04/09 12:23:03;;;;;;;5.27;2.50;;;;;;;;;;5006453;28;20249;-67
2023/04/09 12:25:30;;;;;;;4.30;2.23;;;;;;;;;;5010388;28;20219;-56
2023/04/09 12:27:57;;;;;;;6.03;2.60;;;;;;;;;;5027529;28;20242;-64
2023/04/09 12:30:24;;;;;;;4.67;2.57;;;;;;;;;;5027825;28;20215;-60
2023/04/09 12:32:51;;;;;;;3.87;2.10;;;;;;;;;;5028238;28;20197;-62
2023/04/09 12:35:18;;;;;;;4.03;2.23;;;;;;;;;;5028041;28;20218;-63
2023/04/09 12:37:46;;;;;;;5.37;2.33;;;;;;;;;;5027498;28;20919;-66
2023/04/09 12:40:12;;;;;;;4.33;2.20;;;;;;;;;;5017438;28;20238;-66
2023/04/09 12:42:42;;;;;;;4.43;2.37;;;;;;;;;;5028618;28;20924;-67
2023/04/09 12:45:10;;;;;;;4.20;2.30;;;;;;;;;;5039564;28;20187;-66
2023/04/09 12:47:38;;;;;;;3.43;2.03;;;;;;;;;;5010674;28;20322;-64
2023/04/09 12:50:05;;;;;;;4.93;2.30;;;;;;;;;;5027488;28;20215;-63
2023/04/09 12:52:33;;;;;;;4.13;2.30;;;;;;;;;;5026284;28;20196;-63
2023/04/09 12:55:00;;;;;;;4.50;2.47;;;;;;;;;;5028006;28;20198;-63
2023/04/09 12:57:27;;;;;;;4.97;2.00;;;;;;;;;;5013009;28;20204;-63
2023/04/09 12:59:56;;;;;;;4.00;2.00;;;;;;;;;;5011743;28;20210;-66
2023/04/09 13:02:23;;;;;;;3.03;1.90;;;;;;;;;;5011386;28;20188;-68
2023/04/09 13:04:51;;;;;;;4.20;2.03;;;;;;;;;;5011688;28;20188;-63
2023/04/09 13:07:18;;;;;;;3.77;2.20;;;;;;;;;;5027871;28;20959;-63
2023/04/09 13:09:45;;;;;;;3.87;2.00;;;;;;;;;;5014654;28;20221;-64
2023/04/09 13:12:11;;;;;;;4.30;2.07;;;;;;;;;;5029281;28;20974;-64
2023/04/09 13:14:39;;;;;;;3.07;1.90;;;;;;;;;;5030879;28;20191;-64
2023/04/09 13:17:05;;;;;;;3.57;2.00;;;;;;;;;;5013123;28;20302;-64
2023/04/09 13:19:32;;;;;;;3.07;1.87;;;;;;;;;;5029818;28;20195;-64
2023/04/09 13:22:00;;;;;;;2.67;1.90;;;;;;;;;;5032861;28;20554;-65
2023/04/09 13:24:27;;;;;;;4.50;1.90;;;;;;;;;;5029835;28;20253;-63
2023/04/09 13:26:53;;;;;;;2.20;1.60;;;;;;;;;;5030268;28;20196;-62
2023/04/09 13:29:20;;;;;;;4.20;1.93;;;;;;;;;;5030785;28;20211;-64
2023/04/09 13:31:47;;;;;;;3.93;1.90;;;;;;;;;;5027578;28;20222;-64
2023/04/09 13:34:14;;;;;;;4.33;1.80;;;;;;;;;;5033542;28;20261;-64
2023/04/09 13:36:41;;;;;;;4.23;1.60;;;;;;;;;;5033768;28;20191;-65
2023/04/09 13:39:08;;;;;;;4.03;2.10;;;;;;;;;;5033564;28;20223;-65
2023/04/09 13:41:34;;;;;;;3.00;2.07;;;;;;;;;;5033911;28;20250;-64
2023/04/09 13:44:01;;;;;;;3.57;1.90;;;;;;;;;;5028617;28;20188;-66
2023/04/09 13:46:28;;;;;;;4.60;2.13;;;;;;;;;;5027219;28;20209;-64
2023/04/09 13:48:55;;;;;;;3.57;2.17;;;;;;;;;;5029401;28;20207;-64
2023/04/09 13:51:22;;;;;;;2.77;1.60;;;;;;;;;;5020056;28;20839;-64
2023/04/09 13:53:51;;;;;;;4.80;1.83;;;;;;;;;;5032741;28;20274;-64
2023/04/09 13:56:18;;;;;;;3.30;1.70;;;;;;;;;;5037222;28;20559;-64
2023/04/09 13:58:45;;;;;;;2.50;1.70;;;;;;;;;;5029939;28;20180;-65
2023/04/09 14:01:13;;;;;;;2.87;1.53;;;;;;;;;;5031358;28;21705;-65
2023/04/09 14:03:39;;;;;;;6.03;1.60;;;;;;;;;;5028844;28;21355;-64
2023/04/09 14:06:08;;;;;;;6.53;1.67;;;;;;;;;;5024358;28;20192;-63
2023/04/09 14:08:35;;;;;;;3.83;1.60;;;;;;;;;;5031647;28;20199;-63
2023/04/09 14:11:01;;;;;;;3.30;1.70;;;;;;;;;;5040985;28;20244;-63
2023/04/09 14:13:28;;;;;;;2.67;1.60;;;;;;;;;;5032375;28;20179;-64
2023/04/09 14:15:55;;;;;;;3.00;2.00;;;;;;;;;;5033206;28;20191;-63
2023/04/09 14:18:25;;;;;;;2.80;1.80;;;;;;;;;;5031319;28;20203;-64
2023/04/09 14:20:53;;;;;;;2.80;1.57;;;;;;;;;;5025293;28;20215;-64
2023/04/09 14:23:19;;;;;;;3.90;1.50;;;;;;;;;;5027324;28;20191;-63
2023/04/09 14:25:46;;;;;;;3.13;1.87;;;;;;;;;;5032396;28;20586;-64
2023/04/09 14:28:14;;;;;;;3.33;1.90;;;;;;;;;;5032897;28;20196;-63
2023/04/09 14:30:40;;;;;;;3.67;1.80;;;;;;;;;;5032292;28;20207;-63
2023/04/09 14:33:07;;;;;;;2.53;1.63;;;;;;;;;;5029658;28;20230;-64
2023/04/09 14:35:37;;;;;;;4.23;1.77;;;;;;;;;;5032418;28;20187;-64
2023/04/09 14:38:04;;;;;;;2.93;1.90;;;;;;;;;;5023765;28;20192;-63
2023/04/09 14:40:31;;;;;;;2.10;1.50;;;;;;;;;;5027574;28;20233;-63
2023/04/09 14:42:58;;;;;;;4.70;1.80;;;;;;;;;;5032275;28;20238;-64
2023/04/09 14:45:25;;;;;;;2.90;1.60;;;;;;;;;;5031216;28;20200;-63
2023/04/09 14:47:53;;;;;;;3.33;1.80;;;;;;;;;;5004653;28;20543;-64
2023/04/09 14:50:20;;;;;;;3.20;2.00;;;;;;;;;;5030692;28;20238;-64
2023/04/09 14:52:47;;;;;;;3.37;1.97;;;;;;;;;;5030563;28;20231;-64
2023/04/09 14:55:14;;;;;;;2.33;1.47;;;;;;;;;;5029313;28;20199;-64
2023/04/09 14:57:45;;;;;;;3.90;1.60;;;;;;;;;;5030973;28;20191;-64
2023/04/09 15:00:12;;;;;;;3.97;1.87;;;;;;;;;;5028111;28;20191;-68
2023/04/09 15:02:38;;;;;;;3.87;2.07;;;;;;;;;;5028316;28;20246;-63
2023/04/09 15:05:06;;;;;;;3.40;1.60;;;;;;;;;;5028232;28;20306;-63
2023/04/09 15:07:32;;;;;;;7.17;1.90;;;;;;;;;;5028460;28;20191;-64
2023/04/09 15:09:59;;;;;;;3.67;1.70;;;;;;;;;;5019536;28;20293;-63
2023/04/09 15:12:26;;;;;;;4.10;1.97;;;;;;;;;;5017437;28;20251;-64
2023/04/09 15:14:54;;;;;;;1.97;1.43;;;;;;;;;;5025612;28;20195;-64